createdAt,value
2022-08-01T00:02:00.785Z,4.47
2022-08-01T00:04:28.033Z,5.73
2022-08-01T00:06:55.144Z,4.73
2022-08-01T00:09:23.866Z,5.23
2022-08-01T00:11:59.518Z,4.60
2022-08-01T00:14:32.096Z,4.37
2022-08-01T00:17:05.379Z,4.63
2022-08-01T00:19:34.730Z,4.00
2022-08-01T00:22:01.870Z,3.73
2022-08-01T00:24:29.813Z,4.70
2022-08-01T00:26:56.995Z,4.77
2022-08-01T00:30:11.967Z,4.47
2022-08-01T00:32:12.928Z,4.67
2022-08-01T00:34:40.116Z,4.70
2022-08-01T00:37:07.249Z,4.00
2022-08-01T00:39:34.390Z,3.67
2022-08-01T00:42:01.611Z,4.43
2022-08-01T00:44:28.757Z,4.23
2022-08-01T00:46:55.875Z,3.83
2022-08-01T00:49:24.581Z,4.00
2022-08-01T00:51:51.703Z,4.10
2022-08-01T00:54:18.849Z,3.50
2022-08-01T00:56:46.368Z,4.30
2022-08-01T00:59:15.626Z,4.73
2022-08-01T01:01:46.585Z,4.63
2022-08-01T01:04:14.218Z,4.70
2022-08-01T01:06:49.058Z,4.37
2022-08-01T01:09:28.590Z,4.30
2022-08-01T01:11:59.513Z,4.60
2022-08-01T01:14:30.368Z,4.63
2022-08-01T01:16:59.047Z,4.77
2022-08-01T01:19:29.777Z,4.83
2022-08-01T01:22:09.812Z,4.77
2022-08-01T01:24:39.515Z,5.07
2022-08-01T01:27:12.081Z,4.40
2022-08-01T01:29:58.916Z,4.30
2022-08-01T01:32:31.457Z,4.47
2022-08-01T01:34:59.627Z,4.10
2022-08-01T01:37:28.082Z,4.83
2022-08-01T01:39:55.988Z,4.70
2022-08-01T01:42:24.384Z,5.87
2022-08-01T01:44:53.230Z,5.43
2022-08-01T01:47:20.619Z,5.17
2022-08-01T01:49:48.792Z,5.17
2022-08-01T01:52:17.716Z,4.80
2022-08-01T01:54:46.790Z,5.00
2022-08-01T01:57:14.499Z,4.90
2022-08-01T01:59:42.647Z,5.77
2022-08-01T02:02:12.096Z,4.90
2022-08-01T02:04:41.486Z,4.97
2022-08-01T02:07:09.533Z,4.40
2022-08-01T02:09:37.180Z,5.73
2022-08-01T02:12:08.909Z,4.70
2022-08-01T02:14:37.333Z,5.50
2022-08-01T02:17:04.751Z,5.33
2022-08-01T02:19:37.848Z,4.90
2022-08-01T02:22:07.544Z,5.77
2022-08-01T02:24:38.039Z,5.30
2022-08-01T02:27:08.434Z,5.50
2022-08-01T02:29:39.470Z,5.13
2022-08-01T02:32:08.406Z,5.30
2022-08-01T02:34:37.130Z,5.63
2022-08-01T02:37:04.722Z,5.50
2022-08-01T02:39:32.221Z,6.10
2022-08-01T02:42:00.699Z,5.70
2022-08-01T02:44:30.365Z,4.80
2022-08-01T02:46:59.050Z,5.10
2022-08-01T02:49:27.366Z,5.27
2022-08-01T02:51:56.811Z,4.50
2022-08-01T02:54:24.400Z,4.73
2022-08-01T02:56:52.108Z,5.77
2022-08-01T02:59:22.310Z,4.60
2022-08-01T03:01:50.614Z,4.53
2022-08-01T03:04:18.107Z,5.00
2022-08-01T03:06:46.191Z,4.60
2022-08-01T03:09:16.609Z,5.10
2022-08-01T03:11:44.675Z,4.63
2022-08-01T03:14:12.870Z,4.40
2022-08-01T03:16:41.366Z,5.20
2022-08-01T03:19:09.173Z,5.30
2022-08-01T03:21:37.055Z,5.00
2022-08-01T03:24:05.531Z,4.80
2022-08-01T03:26:35.673Z,5.13
2022-08-01T03:29:05.435Z,4.50
2022-08-01T03:31:33.030Z,5.20
2022-08-01T03:34:05.394Z,5.57
2022-08-01T03:36:34.595Z,5.20
2022-08-01T03:39:04.006Z,4.67
2022-08-01T03:41:34.020Z,5.40
2022-08-01T03:44:04.047Z,4.90
2022-08-01T03:46:36.955Z,5.87
2022-08-01T03:49:06.226Z,5.77
2022-08-01T03:51:34.161Z,4.77
2022-08-01T03:54:02.254Z,6.10
2022-08-01T03:56:30.108Z,6.17
2022-08-01T03:58:57.316Z,6.43
2022-08-01T04:01:25.931Z,6.23
2022-08-01T04:03:53.163Z,6.30
2022-08-01T04:06:20.349Z,5.97
2022-08-01T04:08:47.517Z,6.20
2022-08-01T04:11:14.657Z,7.10
2022-08-01T04:13:44.493Z,6.67
2022-08-01T04:16:11.758Z,6.17
2022-08-01T04:18:40.255Z,8.27
2022-08-01T04:21:07.384Z,8.57
2022-08-01T04:23:35.449Z,10.67
2022-08-01T04:26:04.180Z,8.43
2022-08-01T04:28:32.006Z,10.07
2022-08-01T04:31:02.201Z,9.57
2022-08-01T04:33:31.328Z,10.97
2022-08-01T04:36:01.607Z,10.27
2022-08-01T04:38:32.240Z,8.50
2022-08-01T04:40:59.645Z,10.90
2022-08-01T04:43:36.705Z,9.57
2022-08-01T04:46:04.304Z,10.50
2022-08-01T04:48:33.005Z,10.40
2022-08-01T04:51:01.920Z,11.33
2022-08-01T04:53:29.064Z,12.00
2022-08-01T04:55:56.206Z,11.10
2022-08-01T04:58:23.354Z,11.23
2022-08-01T05:00:50.553Z,12.53
2022-08-01T05:03:18.075Z,11.10
2022-08-01T05:05:45.219Z,12.90
2022-08-01T05:08:13.754Z,14.50
2022-08-01T05:10:40.909Z,13.40
2022-08-01T05:13:08.063Z,14.30
2022-08-01T05:15:36.095Z,13.47
2022-08-01T05:18:03.222Z,12.67
2022-08-01T05:20:30.558Z,13.60
2022-08-01T05:22:57.796Z,14.50
2022-08-01T05:25:56.676Z,13.70
2022-08-01T05:28:13.527Z,13.07
2022-08-01T05:30:46.349Z,12.47
2022-08-01T05:33:13.479Z,12.50
2022-08-01T05:35:48.234Z,13.50
2022-08-01T05:38:16.360Z,14.30
2022-08-01T05:40:44.857Z,13.70
2022-08-01T05:43:12.022Z,14.33
2022-08-01T05:45:39.188Z,13.97
2022-08-01T05:48:06.590Z,13.03
2022-08-01T05:50:34.375Z,12.77
2022-08-01T05:53:01.531Z,11.50
2022-08-01T05:55:28.658Z,12.57
2022-08-01T05:57:57.157Z,12.90
2022-08-01T06:00:24.303Z,13.90
2022-08-01T06:02:51.475Z,13.50
2022-08-01T06:05:18.603Z,13.30
2022-08-01T06:07:45.755Z,13.63
2022-08-01T06:10:12.925Z,14.20
2022-08-01T06:12:40.048Z,13.60
2022-08-01T06:15:09.213Z,12.67
2022-08-01T06:17:36.449Z,12.67
2022-08-01T06:20:03.759Z,12.20
2022-08-01T06:22:30.940Z,12.80
2022-08-01T06:24:58.639Z,12.37
2022-08-01T06:27:25.800Z,12.60
2022-08-01T06:29:53.790Z,11.70
2022-08-01T06:32:27.502Z,11.97
2022-08-01T06:34:55.275Z,11.70
2022-08-01T06:37:22.487Z,10.70
2022-08-01T06:39:49.734Z,10.70
2022-08-01T06:42:16.969Z,10.37
2022-08-01T06:44:44.127Z,11.20
2022-08-01T06:47:11.276Z,10.70
2022-08-01T06:49:39.847Z,11.60
2022-08-01T06:52:07.555Z,10.87
2022-08-01T06:54:35.031Z,11.87
2022-08-01T06:57:02.160Z,10.23
2022-08-01T06:59:29.317Z,9.27
2022-08-01T07:01:56.476Z,10.17
2022-08-01T07:04:23.682Z,10.20
2022-08-01T07:06:52.160Z,10.90
2022-08-01T07:09:19.389Z,11.40
2022-08-01T07:11:46.625Z,11.10
2022-08-01T07:14:13.863Z,11.27
2022-08-01T07:16:41.252Z,11.23
2022-08-01T07:19:08.583Z,10.67
2022-08-01T07:21:39.807Z,11.87
2022-08-01T07:24:12.939Z,10.87
2022-08-01T07:26:52.553Z,10.13
2022-08-01T07:29:21.507Z,9.90
2022-08-01T07:31:48.649Z,9.40
2022-08-01T07:34:15.814Z,9.07
2022-08-01T07:36:42.981Z,8.10
2022-08-01T07:39:11.468Z,9.00
2022-08-01T07:41:53.062Z,7.53
2022-08-01T07:44:28.290Z,8.77
2022-08-01T07:46:56.433Z,8.33
2022-08-01T07:49:23.640Z,9.07
2022-08-01T07:52:04.169Z,8.40
2022-08-01T07:54:39.577Z,10.40
2022-08-01T07:57:06.763Z,10.17
2022-08-01T07:59:33.935Z,10.77
2022-08-01T08:02:01.336Z,9.50
2022-08-01T08:04:28.981Z,9.90
2022-08-01T08:06:56.171Z,7.30
2022-08-01T08:09:23.367Z,7.30
2022-08-01T08:11:51.988Z,5.77
2022-08-01T08:14:19.615Z,6.20
2022-08-01T08:16:46.894Z,6.37
2022-08-01T08:19:14.510Z,5.93
2022-08-01T08:21:41.988Z,5.72
2022-08-01T08:24:09.413Z,5.00
2022-08-01T08:26:38.506Z,4.55
2022-08-01T08:29:08.994Z,5.15
2022-08-01T08:31:51.708Z,4.43
2022-08-01T08:34:20.141Z,3.60
2022-08-01T08:36:48.241Z,4.18
2022-08-01T08:39:17.556Z,4.13
2022-08-01T08:41:49.225Z,5.35
2022-08-01T08:44:19.331Z,4.85
2022-08-01T08:46:47.272Z,4.30
2022-08-01T08:49:17.704Z,4.13
2022-08-01T08:51:45.490Z,3.78
2022-08-01T08:54:13.413Z,3.75
2022-08-01T08:56:41.003Z,4.03
2022-08-01T08:59:08.228Z,4.65
2022-08-01T09:01:37.128Z,3.95
2022-08-01T09:04:04.567Z,4.15
2022-08-01T09:06:32.134Z,4.60
2022-08-01T09:08:59.318Z,3.80
2022-08-01T09:11:26.483Z,4.10
2022-08-01T09:14:03.686Z,4.80
2022-08-01T09:16:31.124Z,4.20
2022-08-01T09:19:15.924Z,3.40
2022-08-01T09:21:56.996Z,4.45
2022-08-01T09:24:30.544Z,2.53
2022-08-01T09:26:58.058Z,2.97
2022-08-01T09:29:37.443Z,2.15
2022-08-01T09:32:07.018Z,2.60
2022-08-01T09:34:35.776Z,3.00
2022-08-01T09:37:03.665Z,3.28
2022-08-01T09:39:33.435Z,2.80
2022-08-01T09:42:02.759Z,2.80
2022-08-01T09:44:43.099Z,3.15
2022-08-01T09:47:12.201Z,2.83
2022-08-01T09:49:50.135Z,2.85
2022-08-01T09:52:19.737Z,3.25
2022-08-01T09:54:54.313Z,3.00
2022-08-01T09:57:22.733Z,2.50
2022-08-01T09:59:59.083Z,2.80
2022-08-01T10:02:29.511Z,2.88
2022-08-01T10:05:03.726Z,2.38
2022-08-01T10:07:43.557Z,2.88
2022-08-01T10:10:12.012Z,2.97
2022-08-01T10:12:39.327Z,3.03
2022-08-01T10:15:12.855Z,2.65
2022-08-01T10:17:51.044Z,2.60
2022-08-01T10:20:30.633Z,2.50
2022-08-01T10:23:00.395Z,2.30
2022-08-01T10:25:43.133Z,3.00
2022-08-01T10:28:14.901Z,3.40
2022-08-01T10:30:45.919Z,3.15
2022-08-01T10:33:49.620Z,3.20
2022-08-01T10:36:02.513Z,2.60
2022-08-01T10:38:29.791Z,2.65
2022-08-01T10:40:58.707Z,2.78
2022-08-01T10:43:26.176Z,2.95
2022-08-01T10:45:53.694Z,2.53
2022-08-01T10:48:26.490Z,2.40
2022-08-01T10:50:59.239Z,3.00
2022-08-01T10:53:31.688Z,2.83
2022-08-01T10:56:10.348Z,2.05
2022-08-01T10:58:42.673Z,2.50
2022-08-01T11:01:15.880Z,3.20
2022-08-01T11:03:56.918Z,2.03
2022-08-01T11:06:27.185Z,1.63
2022-08-01T11:08:56.072Z,2.00
2022-08-01T11:11:23.452Z,1.98
2022-08-01T11:14:03.305Z,2.30
2022-08-01T11:16:31.665Z,2.30
2022-08-01T11:18:59.739Z,2.00
2022-08-01T11:21:57.791Z,2.30
2022-08-01T11:24:42.055Z,2.20
2022-08-01T11:27:20.468Z,2.10
2022-08-01T11:30:07.846Z,2.00
2022-08-01T11:33:06.578Z,2.10
2022-08-01T11:35:34.099Z,1.92
2022-08-01T11:38:16.147Z,1.60
2022-08-01T11:40:43.370Z,1.55
2022-08-01T11:43:21.235Z,2.08
2022-08-01T11:45:48.728Z,2.35
2022-08-01T11:48:19.370Z,1.90
2022-08-01T11:50:47.053Z,1.75
2022-08-01T11:53:14.233Z,1.70
2022-08-01T11:55:45.289Z,1.50
2022-08-01T11:58:29.375Z,1.85
2022-08-01T12:00:59.994Z,1.40
2022-08-01T12:03:33.228Z,1.60
2022-08-01T12:06:01.361Z,1.40
2022-08-01T12:08:29.109Z,1.70
2022-08-01T12:11:01.985Z,1.55
2022-08-01T12:13:29.991Z,1.60
2022-08-01T12:15:57.216Z,1.53
2022-08-01T12:18:25.734Z,1.70
2022-08-01T12:20:57.242Z,1.70
2022-08-01T12:23:24.651Z,1.90
2022-08-01T12:25:52.794Z,1.97
2022-08-01T12:28:20.096Z,1.90
2022-08-01T12:30:48.862Z,1.70
2022-08-01T12:33:18.595Z,1.77
2022-08-01T12:35:47.386Z,1.80
2022-08-01T12:38:16.117Z,1.97
2022-08-01T12:40:45.624Z,1.50
2022-08-01T12:43:27.343Z,2.07
2022-08-01T12:45:58.027Z,1.50
2022-08-01T12:48:26.119Z,1.40
2022-08-01T12:50:55.264Z,1.83
2022-08-01T12:53:22.927Z,1.53
2022-08-01T12:55:58.595Z,1.40
2022-08-01T12:58:32.700Z,2.00
2022-08-01T13:01:04.442Z,1.40
2022-08-01T13:03:31.790Z,1.83
2022-08-01T13:06:00.399Z,1.77
2022-08-01T13:08:31.030Z,1.70
2022-08-01T13:11:01.977Z,1.60
2022-08-01T13:13:38.970Z,1.50
2022-08-01T13:16:06.783Z,1.77
2022-08-01T13:18:36.792Z,1.93
2022-08-01T13:21:12.343Z,1.70
2022-08-01T13:24:03.662Z,1.90
2022-08-01T13:26:38.900Z,2.23
2022-08-01T13:29:06.112Z,1.50
2022-08-01T13:31:34.198Z,2.03
2022-08-01T13:34:01.551Z,1.60
2022-08-01T13:36:30.223Z,1.80
2022-08-01T13:38:57.375Z,1.90
2022-08-01T13:41:24.572Z,1.83
2022-08-01T13:43:58.580Z,1.73
2022-08-01T13:46:27.015Z,1.83
2022-08-01T13:48:56.894Z,1.97
2022-08-01T13:51:24.050Z,1.93
2022-08-01T13:53:52.529Z,1.70
2022-08-01T13:56:19.706Z,2.10
2022-08-01T13:58:47.006Z,2.13
2022-08-01T14:01:14.882Z,1.70
2022-08-01T14:03:42.149Z,1.70
2022-08-01T14:06:09.424Z,1.90
2022-08-01T14:08:36.605Z,2.07
2022-08-01T14:11:07.662Z,1.90
2022-08-01T14:13:36.822Z,2.10
2022-08-01T14:16:04.356Z,1.63
2022-08-01T14:18:31.530Z,1.83
2022-08-01T14:20:59.319Z,1.80
2022-08-01T14:23:33.070Z,2.13
2022-08-01T14:26:03.885Z,1.47
2022-08-01T14:28:35.561Z,2.07
2022-08-01T14:31:02.696Z,1.93
2022-08-01T14:33:30.264Z,2.20
2022-08-01T14:36:05.090Z,2.40
2022-08-01T14:38:46.232Z,1.73
2022-08-01T14:41:14.118Z,1.90
2022-08-01T14:43:42.734Z,2.00
2022-08-01T14:46:09.940Z,2.10
2022-08-01T14:48:37.306Z,2.60
2022-08-01T14:51:04.550Z,2.13
2022-08-01T14:53:31.859Z,2.40
2022-08-01T14:56:01.568Z,2.50
2022-08-01T14:58:28.727Z,2.40
2022-08-01T15:00:59.194Z,2.87
2022-08-01T15:03:26.751Z,2.53
2022-08-01T15:05:53.920Z,2.33
2022-08-01T15:08:21.075Z,2.30
2022-08-01T15:10:48.236Z,2.17
2022-08-01T15:13:15.385Z,2.33
2022-08-01T15:15:42.559Z,2.30
2022-08-01T15:18:11.053Z,2.10
2022-08-01T15:20:38.228Z,2.77
2022-08-01T15:23:05.404Z,2.23
2022-08-01T15:25:40.935Z,2.90
2022-08-01T15:28:09.994Z,2.30
2022-08-01T15:30:37.194Z,2.60
2022-08-01T15:33:04.427Z,3.00
2022-08-01T15:35:32.948Z,2.57
2022-08-01T15:38:00.170Z,3.10
2022-08-01T15:40:27.423Z,2.60
2022-08-01T15:42:54.619Z,2.97
2022-08-01T15:45:45.716Z,3.47
2022-08-01T15:48:09.044Z,2.70
2022-08-01T15:50:37.584Z,3.17
2022-08-01T15:53:04.686Z,3.60
2022-08-01T15:55:31.852Z,2.87
2022-08-01T15:57:58.966Z,3.27
2022-08-01T16:00:32.788Z,3.00
2022-08-01T16:03:06.174Z,3.30
2022-08-01T16:05:33.316Z,3.20
2022-08-01T16:08:02.147Z,2.87
2022-08-01T16:10:29.444Z,3.60
2022-08-01T16:12:56.572Z,3.27
2022-08-01T16:15:36.717Z,3.40
2022-08-01T16:18:04.503Z,3.57
2022-08-01T16:20:31.723Z,3.17
2022-08-01T16:22:58.850Z,3.43
2022-08-01T16:25:27.422Z,3.33
2022-08-01T16:27:54.591Z,3.00
2022-08-01T16:30:21.725Z,2.93
2022-08-01T16:32:53.268Z,3.00
2022-08-01T16:35:22.105Z,2.33
2022-08-01T16:37:51.705Z,2.93
2022-08-01T16:40:18.871Z,2.10
2022-08-01T16:42:47.339Z,2.23
2022-08-01T16:45:14.512Z,1.97
2022-08-01T16:47:41.717Z,2.00
2022-08-01T16:50:09.063Z,1.73
2022-08-01T16:52:41.758Z,1.80
2022-08-01T16:55:10.128Z,1.70
2022-08-01T16:57:37.332Z,1.53
2022-08-01T17:00:07.456Z,1.87
2022-08-01T17:02:34.848Z,1.50
2022-08-01T17:05:07.058Z,1.90
2022-08-01T17:07:35.878Z,2.03
2022-08-01T17:10:03.079Z,2.03
2022-08-01T17:12:30.281Z,2.03
2022-08-01T17:14:57.445Z,1.60
2022-08-01T17:17:26.169Z,1.50
2022-08-01T17:19:53.428Z,1.40
2022-08-01T17:22:20.648Z,1.70
2022-08-01T17:24:47.837Z,1.60
2022-08-01T17:27:15.211Z,1.80
2022-08-01T17:29:43.897Z,1.80
2022-08-01T17:32:12.007Z,1.30
2022-08-01T17:34:40.598Z,1.90
2022-08-01T17:37:08.175Z,1.87
2022-08-01T17:39:39.537Z,1.60
2022-08-01T17:42:07.638Z,1.67
2022-08-01T17:44:34.789Z,1.40
2022-08-01T17:47:01.922Z,1.53
2022-08-01T17:49:53.253Z,1.80
2022-08-01T17:52:17.565Z,1.40
2022-08-01T17:54:44.708Z,1.70
2022-08-01T17:57:11.839Z,1.90
2022-08-01T17:59:39.020Z,1.90
2022-08-01T18:02:06.163Z,1.87
2022-08-01T18:04:34.168Z,1.47
2022-08-01T18:07:04.010Z,1.50
2022-08-01T18:09:32.620Z,2.20
2022-08-01T18:11:59.922Z,1.60
2022-08-01T18:14:32.617Z,1.60
2022-08-01T18:17:08.112Z,2.00
2022-08-01T18:19:38.359Z,1.53
2022-08-01T18:22:05.900Z,2.20
2022-08-01T18:24:54.290Z,1.93
2022-08-01T18:27:21.445Z,2.03
2022-08-01T18:29:48.854Z,1.73
2022-08-01T18:32:16.052Z,1.80
2022-08-01T18:34:43.206Z,2.00
2022-08-01T18:37:10.413Z,1.87
2022-08-01T18:39:39.278Z,2.10
2022-08-01T18:42:07.869Z,1.73
2022-08-01T18:44:35.258Z,1.67
2022-08-01T18:47:02.345Z,1.70
2022-08-01T18:49:29.582Z,2.00
2022-08-01T18:51:56.770Z,1.70
2022-08-01T18:54:23.914Z,1.60
2022-08-01T18:56:51.030Z,1.80
2022-08-01T18:59:20.015Z,2.30
2022-08-01T19:01:47.191Z,2.50
2022-08-01T19:04:14.381Z,1.70
2022-08-01T19:06:41.659Z,1.80
2022-08-01T19:09:09.219Z,1.90
2022-08-01T19:11:36.491Z,2.10
2022-08-01T19:14:03.746Z,1.73
2022-08-01T19:16:32.280Z,1.63
2022-08-01T19:18:59.397Z,1.90
2022-08-01T19:21:26.765Z,2.23
2022-08-01T19:23:53.921Z,1.70
2022-08-01T19:26:22.599Z,1.93
2022-08-01T19:28:52.088Z,2.43
2022-08-01T19:31:20.549Z,2.33
2022-08-01T19:33:49.182Z,2.40
2022-08-01T19:36:17.216Z,2.30
2022-08-01T19:38:44.487Z,2.33
2022-08-01T19:41:12.009Z,2.57
2022-08-01T19:43:43.560Z,1.93
2022-08-01T19:46:18.039Z,2.50
2022-08-01T19:48:51.562Z,2.63
2022-08-01T19:51:22.685Z,2.83
2022-08-01T19:54:02.711Z,2.40
2022-08-01T19:56:29.978Z,2.40
2022-08-01T19:59:00.062Z,2.97
2022-08-01T20:01:28.047Z,2.60
2022-08-01T20:03:55.640Z,3.10
2022-08-01T20:06:26.256Z,2.50
2022-08-01T20:08:54.870Z,2.70
2022-08-01T20:11:22.772Z,2.47
2022-08-01T20:13:50.843Z,3.07
2022-08-01T20:16:18.417Z,3.40
2022-08-01T20:18:45.606Z,3.47
2022-08-01T20:21:13.373Z,2.77
2022-08-01T20:23:43.181Z,3.20
2022-08-01T20:26:10.425Z,3.03
2022-08-01T20:28:39.311Z,3.13
2022-08-01T20:31:07.858Z,2.97
2022-08-01T20:33:35.949Z,2.50
2022-08-01T20:36:04.650Z,2.80
2022-08-01T20:38:40.569Z,3.30
2022-08-01T20:41:09.340Z,2.47
2022-08-01T20:43:36.630Z,2.43
2022-08-01T20:46:04.240Z,2.80
2022-08-01T20:48:31.798Z,3.07
2022-08-01T20:51:00.198Z,3.30
2022-08-01T20:53:27.342Z,2.80
2022-08-01T20:56:00.183Z,3.20
2022-08-01T20:58:34.559Z,2.67
2022-08-01T21:01:03.195Z,2.50
2022-08-01T21:03:40.318Z,2.97
2022-08-01T21:06:09.527Z,2.80
2022-08-01T21:08:41.456Z,2.60
2022-08-01T21:11:10.086Z,2.57
2022-08-01T21:13:41.155Z,2.63
2022-08-01T21:16:23.617Z,2.77
2022-08-01T21:19:18.048Z,2.87
2022-08-01T21:21:44.156Z,2.43
2022-08-01T21:24:16.097Z,3.03
2022-08-01T21:26:43.771Z,3.37
2022-08-01T21:29:12.702Z,3.50
2022-08-01T21:31:41.305Z,3.30
2022-08-01T21:34:09.120Z,3.50
2022-08-01T21:36:36.671Z,2.83
2022-08-01T21:39:05.661Z,2.90
2022-08-01T21:42:05.233Z,2.80
2022-08-01T21:44:28.739Z,3.00
2022-08-01T21:46:56.842Z,3.10
2022-08-01T21:49:24.016Z,3.03
2022-08-01T21:51:54.093Z,2.57
2022-08-01T21:54:24.801Z,2.90
2022-08-01T21:57:00.091Z,3.10
2022-08-01T21:59:33.489Z,3.13
2022-08-01T22:02:02.718Z,3.40
2022-08-01T22:04:34.790Z,2.90
2022-08-01T22:07:03.403Z,3.47
2022-08-01T22:09:30.880Z,3.30
2022-08-01T22:12:00.941Z,3.00
2022-08-01T22:14:32.228Z,2.90
2022-08-01T22:16:59.418Z,3.60
2022-08-01T22:19:43.820Z,2.70
2022-08-01T22:22:44.168Z,3.27
2022-08-01T22:25:00.308Z,3.10
2022-08-01T22:28:05.651Z,3.03
2022-08-01T22:30:17.122Z,3.23
2022-08-01T22:32:45.749Z,3.20
2022-08-01T22:35:33.150Z,3.30
2022-08-01T22:38:00.572Z,2.93
2022-08-01T22:40:28.838Z,3.33
2022-08-01T22:42:59.944Z,3.30
2022-08-01T22:45:33.543Z,5.17
2022-08-01T22:48:06.567Z,3.93
2022-08-01T22:50:36.768Z,3.03
2022-08-01T22:53:16.325Z,3.23
2022-08-01T22:55:58.844Z,3.50
2022-08-01T22:58:29.076Z,3.20
2022-08-01T23:01:00.292Z,3.13
2022-08-01T23:03:28.089Z,3.20
2022-08-01T23:06:02.370Z,3.67
2022-08-01T23:08:30.731Z,3.93
2022-08-01T23:10:58.761Z,3.40
2022-08-01T23:13:26.009Z,3.30
2022-08-01T23:15:53.505Z,3.87
2022-08-01T23:18:22.243Z,3.97
2022-08-01T23:20:50.219Z,3.23
2022-08-01T23:23:17.798Z,3.60
2022-08-01T23:25:58.704Z,4.20
2022-08-01T23:28:26.312Z,3.47
2022-08-01T23:30:53.510Z,4.77
2022-08-01T23:33:22.123Z,3.70
2022-08-01T23:35:49.316Z,4.10
2022-08-01T23:38:16.531Z,3.90
2022-08-01T23:40:43.662Z,4.37
2022-08-01T23:43:16.630Z,3.70
2022-08-01T23:46:03.718Z,3.57
2022-08-01T23:48:33.010Z,3.53
2022-08-01T23:51:00.158Z,4.20
2022-08-01T23:53:30.739Z,4.00
2022-08-01T23:55:58.673Z,4.60
2022-08-01T23:58:25.844Z,4.10
